sensor_id;sensor_type;location;lat;lon;timestamp;P1;durP1;ratioP1;P2;durP2;ratioP2
81150;SDS011;70629;-26.026;27.976;2023-12-28T00:00:14;7.20;;;3.47;;
81150;SDS011;70629;-26.026;27.976;2023-12-28T00:00:54;7.22;;;3.97;;
81150;SDS011;70629;-26.026;27.976;2023-12-28T00:01:34;6.65;;;4.05;;
81150;SDS011;70629;-26.026;27.976;2023-12-28T00:02:14;7.22;;;3.72;;
81150;SDS011;70629;-26.026;27.976;2023-12-28T00:02:54;7.55;;;3.58;;
81150;SDS011;70629;-26.026;27.976;2023-12-28T00:03:34;6.25;;;3.22;;
81150;SDS011;70629;-26.026;27.976;2023-12-28T00:04:14;6.80;;;3.38;;
81150;SDS011;70629;-26.026;27.976;2023-12-28T00:04:54;10.73;;;3.67;;
81150;SDS011;70629;-26.026;27.976;2023-12-28T00:05:34;5.38;;;3.42;;
81150;SDS011;70629;-26.026;27.976;2023-12-28T00:06:14;5.97;;;3.10;;
81150;SDS011;70629;-26.026;27.976;2023-12-28T00:06:54;9.50;;;3.75;;
81150;SDS011;70629;-26.026;27.976;2023-12-28T00:07:34;7.28;;;3.45;;
81150;SDS011;70629;-26.026;27.976;2023-12-28T00:08:14;6.03;;;2.88;;
81150;SDS011;70629;-26.026;27.976;2023-12-28T00:08:54;7.15;;;3.03;;
81150;SDS011;70629;-26.026;27.976;2023-12-28T00:10:25;6.20;;;2.88;;
81150;SDS011;70629;-26.026;27.976;2023-12-28T00:11:06;8.05;;;3.10;;
81150;SDS011;70629;-26.026;27.976;2023-12-28T00:11:46;6.40;;;3.20;;
81150;SDS011;70629;-26.026;27.976;2023-12-28T00:12:26;5.80;;;3.20;;
81150;SDS011;70629;-26.026;27.976;2023-12-28T00:13:06;6.47;;;3.30;;
81150;SDS011;70629;-26.026;27.976;2023-12-28T00:13:45;5.30;;;2.92;;
81150;SDS011;70629;-26.026;27.976;2023-12-28T00:14:25;6.78;;;3.45;;
81150;SDS011;70629;-26.026;27.976;2023-12-28T00:15:05;7.25;;;3.50;;
81150;SDS011;70629;-26.026;27.976;2023-12-28T00:15:45;6.13;;;3.28;;
81150;SDS011;70629;-26.026;27.976;2023-12-28T00:16:25;7.70;;;3.50;;
81150;SDS011;70629;-26.026;27.976;2023-12-28T00:17:06;6.90;;;3.60;;
81150;SDS011;70629;-26.026;27.976;2023-12-28T00:17:46;7.10;;;3.25;;
81150;SDS011;70629;-26.026;27.976;2023-12-28T00:18:26;5.00;;;2.75;;
81150;SDS011;70629;-26.026;27.976;2023-12-28T00:19:06;6.07;;;3.05;;
81150;SDS011;70629;-26.026;27.976;2023-12-28T00:19:46;6.07;;;3.13;;
81150;SDS011;70629;-26.026;27.976;2023-12-28T00:20:26;6.13;;;3.25;;
81150;SDS011;70629;-26.026;27.976;2023-12-28T00:21:06;9.55;;;3.60;;
81150;SDS011;70629;-26.026;27.976;2023-12-28T00:21:46;7.65;;;3.45;;
81150;SDS011;70629;-26.026;27.976;2023-12-28T00:22:25;6.25;;;3.53;;
81150;SDS011;70629;-26.026;27.976;2023-12-28T00:23:05;6.43;;;2.90;;
81150;SDS011;70629;-26.026;27.976;2023-12-28T00:23:45;5.28;;;2.88;;
81150;SDS011;70629;-26.026;27.976;2023-12-28T00:24:25;6.93;;;2.80;;
81150;SDS011;70629;-26.026;27.976;2023-12-28T00:25:05;7.47;;;3.05;;
81150;SDS011;70629;-26.026;27.976;2023-12-28T00:25:45;6.43;;;3.60;;
81150;SDS011;70629;-26.026;27.976;2023-12-28T00:26:25;8.68;;;3.13;;
81150;SDS011;70629;-26.026;27.976;2023-12-28T00:27:12;7.25;;;3.20;;
81150;SDS011;70629;-26.026;27.976;2023-12-28T00:27:52;8.55;;;3.65;;
81150;SDS011;70629;-26.026;27.976;2023-12-28T00:28:33;6.15;;;3.50;;
81150;SDS011;70629;-26.026;27.976;2023-12-28T00:29:13;8.05;;;3.85;;
81150;SDS011;70629;-26.026;27.976;2023-12-28T00:29:53;8.10;;;4.18;;
81150;SDS011;70629;-26.026;27.976;2023-12-28T00:30:32;7.80;;;3.13;;
81150;SDS011;70629;-26.026;27.976;2023-12-28T00:31:12;7.05;;;3.78;;
81150;SDS011;70629;-26.026;27.976;2023-12-28T00:31:53;7.05;;;3.60;;
81150;SDS011;70629;-26.026;27.976;2023-12-28T00:32:33;10.65;;;3.60;;
81150;SDS011;70629;-26.026;27.976;2023-12-28T00:33:13;6.38;;;4.30;;
81150;SDS011;70629;-26.026;27.976;2023-12-28T00:33:53;6.90;;;3.90;;
81150;SDS011;70629;-26.026;27.976;2023-12-28T00:34:33;7.63;;;3.35;;
81150;SDS011;70629;-26.026;27.976;2023-12-28T00:35:15;9.02;;;3.38;;
81150;SDS011;70629;-26.026;27.976;2023-12-28T00:35:55;9.27;;;3.90;;
81150;SDS011;70629;-26.026;27.976;2023-12-28T00:36:35;8.40;;;3.55;;
81150;SDS011;70629;-26.026;27.976;2023-12-28T00:37:15;11.07;;;4.47;;
81150;SDS011;70629;-26.026;27.976;2023-12-28T00:37:55;7.03;;;3.35;;
81150;SDS011;70629;-26.026;27.976;2023-12-28T00:38:35;7.30;;;3.20;;
81150;SDS011;70629;-26.026;27.976;2023-12-28T00:39:17;7.38;;;3.58;;
81150;SDS011;70629;-26.026;27.976;2023-12-28T00:39:57;6.95;;;3.55;;
81150;SDS011;70629;-26.026;27.976;2023-12-28T00:40:37;5.85;;;3.67;;
81150;SDS011;70629;-26.026;27.976;2023-12-28T00:41:16;6.97;;;3.55;;
81150;SDS011;70629;-26.026;27.976;2023-12-28T00:41:56;8.77;;;3.60;;
81150;SDS011;70629;-26.026;27.976;2023-12-28T00:42:37;7.78;;;3.50;;
81150;SDS011;70629;-26.026;27.976;2023-12-28T00:43:19;6.95;;;3.58;;
81150;SDS011;70629;-26.026;27.976;2023-12-28T00:43:59;9.13;;;3.45;;
81150;SDS011;70629;-26.026;27.976;2023-12-28T00:44:40;7.60;;;4.15;;
81150;SDS011;70629;-26.026;27.976;2023-12-28T00:45:21;6.80;;;3.80;;
81150;SDS011;70629;-26.026;27.976;2023-12-28T00:46:02;6.38;;;3.15;;
81150;SDS011;70629;-26.026;27.976;2023-12-28T00:46:42;7.45;;;4.38;;
81150;SDS011;70629;-26.026;27.976;2023-12-28T00:47:21;8.65;;;3.72;;
81150;SDS011;70629;-26.026;27.976;2023-12-28T00:48:01;7.15;;;3.97;;
81150;SDS011;70629;-26.026;27.976;2023-12-28T00:48:42;8.10;;;3.97;;
81150;SDS011;70629;-26.026;27.976;2023-12-28T00:49:22;8.00;;;3.90;;
81150;SDS011;70629;-26.026;27.976;2023-12-28T00:50:02;6.68;;;3.90;;
81150;SDS011;70629;-26.026;27.976;2023-12-28T00:50:42;7.20;;;3.50;;
81150;SDS011;70629;-26.026;27.976;2023-12-28T00:51:22;8.05;;;3.25;;
81150;SDS011;70629;-26.026;27.976;2023-12-28T00:52:02;6.38;;;3.25;;
81150;SDS011;70629;-26.026;27.976;2023-12-28T00:52:42;9.10;;;3.47;;
81150;SDS011;70629;-26.026;27.976;2023-12-28T00:53:23;8.02;;;3.80;;
81150;SDS011;70629;-26.026;27.976;2023-12-28T00:54:02;5.25;;;3.40;;
81150;SDS011;70629;-26.026;27.976;2023-12-28T00:54:43;5.25;;;3.00;;
81150;SDS011;70629;-26.026;27.976;2023-12-28T00:55:23;5.40;;;3.53;;
81150;SDS011;70629;-26.026;27.976;2023-12-28T00:56:02;6.93;;;3.70;;
81150;SDS011;70629;-26.026;27.976;2023-12-28T00:56:42;9.23;;;3.95;;
81150;SDS011;70629;-26.026;27.976;2023-12-28T00:57:23;9.27;;;3.70;;
81150;SDS011;70629;-26.026;27.976;2023-12-28T00:58:03;6.25;;;3.70;;
81150;SDS011;70629;-26.026;27.976;2023-12-28T00:58:43;7.18;;;2.92;;
81150;SDS011;70629;-26.026;27.976;2023-12-28T00:59:23;7.95;;;3.58;;
81150;SDS011;70629;-26.026;27.976;2023-12-28T01:00:03;6.97;;;3.25;;
81150;SDS011;70629;-26.026;27.976;2023-12-28T01:00:43;7.07;;;3.25;;
81150;SDS011;70629;-26.026;27.976;2023-12-28T01:01:23;8.40;;;3.28;;
81150;SDS011;70629;-26.026;27.976;2023-12-28T01:02:04;7.75;;;3.28;;
81150;SDS011;70629;-26.026;27.976;2023-12-28T01:02:44;8.00;;;3.35;;
81150;SDS011;70629;-26.026;27.976;2023-12-28T01:03:26;8.43;;;3.47;;
81150;SDS011;70629;-26.026;27.976;2023-12-28T01:04:06;8.05;;;3.30;;
81150;SDS011;70629;-26.026;27.976;2023-12-28T01:04:46;6.50;;;3.30;;
81150;SDS011;70629;-26.026;27.976;2023-12-28T01:05:25;7.28;;;3.50;;
81150;SDS011;70629;-26.026;27.976;2023-12-28T01:06:07;7.18;;;3.60;;
81150;SDS011;70629;-26.026;27.976;2023-12-28T01:06:47;6.38;;;3.20;;
81150;SDS011;70629;-26.026;27.976;2023-12-28T01:07:27;6.85;;;3.45;;
81150;SDS011;70629;-26.026;27.976;2023-12-28T01:08:07;5.47;;;3.20;;
81150;SDS011;70629;-26.026;27.976;2023-12-28T01:08:47;5.65;;;3.58;;
81150;SDS011;70629;-26.026;27.976;2023-12-28T01:09:27;6.25;;;3.72;;
81150;SDS011;70629;-26.026;27.976;2023-12-28T01:10:11;7.32;;;3.83;;
81150;SDS011;70629;-26.026;27.976;2023-12-28T01:10:51;7.18;;;3.22;;
81150;SDS011;70629;-26.026;27.976;2023-12-28T01:11:31;7.00;;;3.47;;
81150;SDS011;70629;-26.026;27.976;2023-12-28T01:12:11;8.45;;;3.65;;
81150;SDS011;70629;-26.026;27.976;2023-12-28T01:12:51;6.65;;;3.30;;
81150;SDS011;70629;-26.026;27.976;2023-12-28T01:13:30;6.20;;;3.58;;
81150;SDS011;70629;-26.026;27.976;2023-12-28T01:14:10;6.60;;;3.33;;
81150;SDS011;70629;-26.026;27.976;2023-12-28T01:14:50;5.35;;;3.13;;
81150;SDS011;70629;-26.026;27.976;2023-12-28T01:15:30;7.10;;;3.45;;
81150;SDS011;70629;-26.026;27.976;2023-12-28T01:16:12;8.05;;;3.28;;
81150;SDS011;70629;-26.026;27.976;2023-12-28T01:16:52;8.10;;;3.45;;
81150;SDS011;70629;-26.026;27.976;2023-12-28T01:17:32;5.95;;;3.78;;
81150;SDS011;70629;-26.026;27.976;2023-12-28T01:18:12;9.05;;;3.72;;
81150;SDS011;70629;-26.026;27.976;2023-12-28T01:18:52;7.07;;;4.10;;
81150;SDS011;70629;-26.026;27.976;2023-12-28T01:19:32;7.15;;;4.28;;
81150;SDS011;70629;-26.026;27.976;2023-12-28T01:20:12;6.68;;;3.30;;
81150;SDS011;70629;-26.026;27.976;2023-12-28T01:20:52;6.78;;;3.22;;
81150;SDS011;70629;-26.026;27.976;2023-12-28T01:21:32;9.27;;;3.65;;
81150;SDS011;70629;-26.026;27.976;2023-12-28T01:22:12;5.97;;;3.28;;
81150;SDS011;70629;-26.026;27.976;2023-12-28T01:22:52;8.85;;;3.63;;
81150;SDS011;70629;-26.026;27.976;2023-12-28T01:23:32;8.23;;;3.50;;
81150;SDS011;70629;-26.026;27.976;2023-12-28T01:24:12;7.65;;;3.88;;
81150;SDS011;70629;-26.026;27.976;2023-12-28T01:24:52;6.57;;;3.97;;
81150;SDS011;70629;-26.026;27.976;2023-12-28T01:25:32;6.72;;;3.53;;
81150;SDS011;70629;-26.026;27.976;2023-12-28T01:26:13;7.75;;;3.63;;
81150;SDS011;70629;-26.026;27.976;2023-12-28T01:26:53;6.43;;;3.53;;
81150;SDS011;70629;-26.026;27.976;2023-12-28T01:27:33;6.60;;;3.47;;
81150;SDS011;70629;-26.026;27.976;2023-12-28T01:28:13;6.70;;;3.47;;
81150;SDS011;70629;-26.026;27.976;2023-12-28T01:28:53;6.75;;;3.30;;
81150;SDS011;70629;-26.026;27.976;2023-12-28T01:29:33;6.72;;;3.45;;
81150;SDS011;70629;-26.026;27.976;2023-12-28T01:30:13;7.35;;;3.00;;
81150;SDS011;70629;-26.026;27.976;2023-12-28T01:30:53;6.80;;;3.55;;
81150;SDS011;70629;-26.026;27.976;2023-12-28T01:31:33;7.03;;;3.50;;
81150;SDS011;70629;-26.026;27.976;2023-12-28T01:32:14;6.70;;;3.17;;
81150;SDS011;70629;-26.026;27.976;2023-12-28T01:32:54;6.55;;;3.72;;
81150;SDS011;70629;-26.026;27.976;2023-12-28T01:33:34;7.20;;;3.72;;
81150;SDS011;70629;-26.026;27.976;2023-12-28T01:34:16;5.93;;;3.22;;
81150;SDS011;70629;-26.026;27.976;2023-12-28T01:34:55;6.32;;;3.50;;
81150;SDS011;70629;-26.026;27.976;2023-12-28T01:35:35;6.03;;;3.28;;
81150;SDS011;70629;-26.026;27.976;2023-12-28T01:36:18;6.32;;;3.45;;
81150;SDS011;70629;-26.026;27.976;2023-12-28T01:36:58;6.22;;;3.45;;
81150;SDS011;70629;-26.026;27.976;2023-12-28T01:37:38;5.72;;;3.50;;
81150;SDS011;70629;-26.026;27.976;2023-12-28T01:38:19;7.15;;;3.63;;
81150;SDS011;70629;-26.026;27.976;2023-12-28T01:38:58;7.20;;;4.00;;
81150;SDS011;70629;-26.026;27.976;2023-12-28T01:39:38;6.18;;;3.08;;
81150;SDS011;70629;-26.026;27.976;2023-12-28T01:40:18;5.88;;;3.45;;
81150;SDS011;70629;-26.026;27.976;2023-12-28T01:40:58;6.88;;;4.00;;
81150;SDS011;70629;-26.026;27.976;2023-12-28T01:41:38;8.10;;;3.97;;
81150;SDS011;70629;-26.026;27.976;2023-12-28T01:42:18;6.72;;;3.60;;
81150;SDS011;70629;-26.026;27.976;2023-12-28T01:42:58;8.63;;;4.10;;
81150;SDS011;70629;-26.026;27.976;2023-12-28T01:43:38;6.82;;;4.15;;
81150;SDS011;70629;-26.026;27.976;2023-12-28T01:44:18;8.18;;;3.70;;
81150;SDS011;70629;-26.026;27.976;2023-12-28T01:44:58;7.32;;;4.03;;
81150;SDS011;70629;-26.026;27.976;2023-12-28T01:45:38;6.82;;;3.47;;
81150;SDS011;70629;-26.026;27.976;2023-12-28T01:46:18;5.90;;;3.40;;
81150;SDS011;70629;-26.026;27.976;2023-12-28T01:47:00;6.15;;;3.67;;
81150;SDS011;70629;-26.026;27.976;2023-12-28T01:47:39;6.80;;;4.28;;
81150;SDS011;70629;-26.026;27.976;2023-12-28T01:48:20;6.10;;;3.75;;
81150;SDS011;70629;-26.026;27.976;2023-12-28T01:49:00;5.95;;;3.33;;
81150;SDS011;70629;-26.026;27.976;2023-12-28T01:49:41;7.00;;;3.63;;
81150;SDS011;70629;-26.026;27.976;2023-12-28T01:50:22;7.45;;;4.28;;
81150;SDS011;70629;-26.026;27.976;2023-12-28T01:51:05;8.30;;;3.70;;
81150;SDS011;70629;-26.026;27.976;2023-12-28T01:51:45;6.28;;;3.50;;
81150;SDS011;70629;-26.026;27.976;2023-12-28T01:52:25;6.10;;;3.92;;
81150;SDS011;70629;-26.026;27.976;2023-12-28T01:53:06;6.75;;;3.55;;
81150;SDS011;70629;-26.026;27.976;2023-12-28T01:53:47;7.95;;;3.50;;
81150;SDS011;70629;-26.026;27.976;2023-12-28T01:54:29;6.43;;;3.95;;
81150;SDS011;70629;-26.026;27.976;2023-12-28T01:55:09;6.25;;;3.50;;
81150;SDS011;70629;-26.026;27.976;2023-12-28T01:55:49;5.90;;;4.32;;
81150;SDS011;70629;-26.026;27.976;2023-12-28T01:56:30;7.43;;;4.10;;
81150;SDS011;70629;-26.026;27.976;2023-12-28T01:57:10;6.72;;;3.85;;
81150;SDS011;70629;-26.026;27.976;2023-12-28T01:57:52;7.95;;;3.90;;
81150;SDS011;70629;-26.026;27.976;2023-12-28T01:58:33;5.90;;;3.58;;
81150;SDS011;70629;-26.026;27.976;2023-12-28T01:59:16;6.70;;;3.60;;
81150;SDS011;70629;-26.026;27.976;2023-12-28T01:59:57;6.50;;;3.97;;
81150;SDS011;70629;-26.026;27.976;2023-12-28T02:00:49;6.88;;;3.80;;
81150;SDS011;70629;-26.026;27.976;2023-12-28T02:01:30;5.93;;;3.55;;
81150;SDS011;70629;-26.026;27.976;2023-12-28T02:02:10;6.60;;;3.63;;
81150;SDS011;70629;-26.026;27.976;2023-12-28T02:02:50;5.82;;;3.17;;
81150;SDS011;70629;-26.026;27.976;2023-12-28T02:03:31;9.10;;;3.90;;
81150;SDS011;70629;-26.026;27.976;2023-12-28T02:04:11;9.10;;;3.88;;
81150;SDS011;70629;-26.026;27.976;2023-12-28T02:04:51;8.20;;;3.95;;
81150;SDS011;70629;-26.026;27.976;2023-12-28T02:05:32;6.75;;;3.92;;
81150;SDS011;70629;-26.026;27.976;2023-12-28T02:06:13;7.40;;;4.00;;
81150;SDS011;70629;-26.026;27.976;2023-12-28T02:06:57;10.88;;;4.38;;
81150;SDS011;70629;-26.026;27.976;2023-12-28T02:07:39;6.82;;;4.38;;
81150;SDS011;70629;-26.026;27.976;2023-12-28T02:08:19;6.63;;;3.65;;
81150;SDS011;70629;-26.026;27.976;2023-12-28T02:08:59;7.60;;;4.13;;
81150;SDS011;70629;-26.026;27.976;2023-12-28T02:09:38;6.25;;;3.55;;
81150;SDS011;70629;-26.026;27.976;2023-12-28T02:10:18;7.68;;;3.60;;
81150;SDS011;70629;-26.026;27.976;2023-12-28T02:10:58;6.38;;;3.30;;
81150;SDS011;70629;-26.026;27.976;2023-12-28T02:11:39;6.40;;;3.72;;
81150;SDS011;70629;-26.026;27.976;2023-12-28T02:12:18;6.28;;;3.67;;
81150;SDS011;70629;-26.026;27.976;2023-12-28T02:12:58;7.72;;;4.75;;
81150;SDS011;70629;-26.026;27.976;2023-12-28T02:13:38;9.70;;;4.00;;
81150;SDS011;70629;-26.026;27.976;2023-12-28T02:14:19;6.30;;;4.40;;
81150;SDS011;70629;-26.026;27.976;2023-12-28T02:15:00;8.00;;;4.53;;
81150;SDS011;70629;-26.026;27.976;2023-12-28T02:15:43;8.05;;;4.38;;
81150;SDS011;70629;-26.026;27.976;2023-12-28T02:16:30;6.90;;;4.13;;
81150;SDS011;70629;-26.026;27.976;2023-12-28T02:17:14;6.32;;;3.90;;
81150;SDS011;70629;-26.026;27.976;2023-12-28T02:18:21;7.38;;;4.07;;
81150;SDS011;70629;-26.026;27.976;2023-12-28T02:19:03;7.45;;;4.35;;
81150;SDS011;70629;-26.026;27.976;2023-12-28T02:20:08;7.00;;;3.80;;
81150;SDS011;70629;-26.026;27.976;2023-12-28T02:20:50;8.25;;;4.72;;
81150;SDS011;70629;-26.026;27.976;2023-12-28T02:21:31;6.90;;;3.90;;
81150;SDS011;70629;-26.026;27.976;2023-12-28T02:22:14;6.22;;;4.22;;
81150;SDS011;70629;-26.026;27.976;2023-12-28T02:22:54;6.72;;;4.30;;
81150;SDS011;70629;-26.026;27.976;2023-12-28T02:23:35;10.25;;;4.55;;
81150;SDS011;70629;-26.026;27.976;2023-12-28T02:24:15;8.10;;;4.60;;
81150;SDS011;70629;-26.026;27.976;2023-12-28T02:24:57;7.10;;;4.60;;
81150;SDS011;70629;-26.026;27.976;2023-12-28T02:25:38;6.57;;;3.70;;
81150;SDS011;70629;-26.026;27.976;2023-12-28T02:26:18;6.80;;;4.20;;
81150;SDS011;70629;-26.026;27.976;2023-12-28T02:26:58;9.18;;;4.63;;
81150;SDS011;70629;-26.026;27.976;2023-12-28T02:27:41;6.82;;;4.32;;
81150;SDS011;70629;-26.026;27.976;2023-12-28T02:28:25;7.60;;;4.32;;
81150;SDS011;70629;-26.026;27.976;2023-12-28T02:29:04;7.75;;;4.47;;
81150;SDS011;70629;-26.026;27.976;2023-12-28T02:29:44;7.20;;;5.40;;
81150;SDS011;70629;-26.026;27.976;2023-12-28T02:30:24;7.80;;;4.93;;
81150;SDS011;70629;-26.026;27.976;2023-12-28T02:31:05;8.20;;;4.63;;
81150;SDS011;70629;-26.026;27.976;2023-12-28T02:31:49;7.72;;;4.53;;
81150;SDS011;70629;-26.026;27.976;2023-12-28T02:33:43;8.88;;;5.00;;
81150;SDS011;70629;-26.026;27.976;2023-12-28T02:34:43;7.72;;;4.63;;
81150;SDS011;70629;-26.026;27.976;2023-12-28T02:35:30;7.38;;;4.78;;
81150;SDS011;70629;-26.026;27.976;2023-12-28T02:36:13;9.25;;;5.32;;
81150;SDS011;70629;-26.026;27.976;2023-12-28T02:36:57;7.65;;;5.00;;
81150;SDS011;70629;-26.026;27.976;2023-12-28T02:37:38;8.20;;;4.82;;
81150;SDS011;70629;-26.026;27.976;2023-12-28T02:38:18;6.70;;;4.63;;
81150;SDS011;70629;-26.026;27.976;2023-12-28T02:39:00;10.77;;;5.22;;
81150;SDS011;70629;-26.026;27.976;2023-12-28T02:39:42;11.82;;;5.53;;
81150;SDS011;70629;-26.026;27.976;2023-12-28T02:40:26;9.00;;;5.45;;
81150;SDS011;70629;-26.026;27.976;2023-12-28T02:41:09;7.82;;;4.35;;
81150;SDS011;70629;-26.026;27.976;2023-12-28T02:41:50;9.65;;;5.57;;
81150;SDS011;70629;-26.026;27.976;2023-12-28T02:42:30;9.15;;;4.50;;
81150;SDS011;70629;-26.026;27.976;2023-12-28T02:43:10;6.80;;;5.20;;
81150;SDS011;70629;-26.026;27.976;2023-12-28T02:43:50;8.85;;;5.18;;
81150;SDS011;70629;-26.026;27.976;2023-12-28T02:44:31;8.30;;;5.80;;
81150;SDS011;70629;-26.026;27.976;2023-12-28T02:45:10;7.85;;;5.70;;
81150;SDS011;70629;-26.026;27.976;2023-12-28T02:45:50;8.05;;;4.82;;
81150;SDS011;70629;-26.026;27.976;2023-12-28T02:46:30;9.02;;;4.90;;
81150;SDS011;70629;-26.026;27.976;2023-12-28T02:47:10;7.50;;;5.60;;
81150;SDS011;70629;-26.026;27.976;2023-12-28T02:47:50;9.85;;;5.88;;
81150;SDS011;70629;-26.026;27.976;2023-12-28T02:48:30;8.98;;;5.43;;
81150;SDS011;70629;-26.026;27.976;2023-12-28T02:49:10;7.93;;;5.80;;
81150;SDS011;70629;-26.026;27.976;2023-12-28T02:49:51;7.95;;;5.20;;
81150;SDS011;70629;-26.026;27.976;2023-12-28T02:50:33;9.88;;;5.60;;
81150;SDS011;70629;-26.026;27.976;2023-12-28T02:51:13;8.15;;;5.38;;
81150;SDS011;70629;-26.026;27.976;2023-12-28T02:51:55;8.73;;;5.95;;
81150;SDS011;70629;-26.026;27.976;2023-12-28T02:52:35;7.95;;;5.65;;
81150;SDS011;70629;-26.026;27.976;2023-12-28T02:53:14;8.00;;;5.60;;
81150;SDS011;70629;-26.026;27.976;2023-12-28T02:53:54;9.70;;;6.35;;
81150;SDS011;70629;-26.026;27.976;2023-12-28T02:54:34;9.10;;;5.72;;
81150;SDS011;70629;-26.026;27.976;2023-12-28T02:55:14;7.82;;;5.70;;
81150;SDS011;70629;-26.026;27.976;2023-12-28T02:55:55;8.82;;;5.55;;
81150;SDS011;70629;-26.026;27.976;2023-12-28T02:56:35;7.95;;;5.55;;
81150;SDS011;70629;-26.026;27.976;2023-12-28T02:57:15;7.93;;;5.15;;
81150;SDS011;70629;-26.026;27.976;2023-12-28T02:57:57;9.38;;;5.82;;
81150;SDS011;70629;-26.026;27.976;2023-12-28T02:58:41;8.10;;;5.32;;
81150;SDS011;70629;-26.026;27.976;2023-12-28T02:59:20;8.90;;;5.70;;
81150;SDS011;70629;-26.026;27.976;2023-12-28T03:00:00;9.88;;;5.85;;
81150;SDS011;70629;-26.026;27.976;2023-12-28T03:00:43;8.60;;;5.70;;
81150;SDS011;70629;-26.026;27.976;2023-12-28T03:01:22;10.18;;;6.10;;
81150;SDS011;70629;-26.026;27.976;2023-12-28T03:02:03;9.63;;;5.65;;
81150;SDS011;70629;-26.026;27.976;2023-12-28T03:02:43;10.18;;;6.13;;
81150;SDS011;70629;-26.026;27.976;2023-12-28T03:03:23;9.48;;;6.45;;
81150;SDS011;70629;-26.026;27.976;2023-12-28T03:04:03;9.35;;;5.97;;
81150;SDS011;70629;-26.026;27.976;2023-12-28T03:04:43;11.48;;;6.00;;
81150;SDS011;70629;-26.026;27.976;2023-12-28T03:05:23;9.20;;;6.03;;
81150;SDS011;70629;-26.026;27.976;2023-12-28T03:06:03;9.32;;;6.10;;
81150;SDS011;70629;-26.026;27.976;2023-12-28T03:06:45;9.40;;;6.30;;
81150;SDS011;70629;-26.026;27.976;2023-12-28T03:07:26;8.93;;;6.22;;
81150;SDS011;70629;-26.026;27.976;2023-12-28T03:08:05;8.90;;;5.90;;
81150;SDS011;70629;-26.026;27.976;2023-12-28T03:08:46;9.40;;;5.97;;
81150;SDS011;70629;-26.026;27.976;2023-12-28T03:09:25;9.95;;;5.97;;
81150;SDS011;70629;-26.026;27.976;2023-12-28T03:10:06;9.70;;;6.40;;
81150;SDS011;70629;-26.026;27.976;2023-12-28T03:10:48;9.88;;;5.88;;
81150;SDS011;70629;-26.026;27.976;2023-12-28T03:11:29;9.50;;;6.38;;
81150;SDS011;70629;-26.026;27.976;2023-12-28T03:12:08;7.72;;;6.00;;
81150;SDS011;70629;-26.026;27.976;2023-12-28T03:12:48;9.85;;;6.32;;
81150;SDS011;70629;-26.026;27.976;2023-12-28T03:13:28;9.50;;;6.30;;
81150;SDS011;70629;-26.026;27.976;2023-12-28T03:14:08;8.90;;;5.95;;
81150;SDS011;70629;-26.026;27.976;2023-12-28T03:14:48;10.13;;;6.15;;
81150;SDS011;70629;-26.026;27.976;2023-12-28T03:15:28;11.70;;;6.90;;
81150;SDS011;70629;-26.026;27.976;2023-12-28T03:16:07;9.00;;;6.05;;
81150;SDS011;70629;-26.026;27.976;2023-12-28T03:16:48;11.32;;;6.38;;
81150;SDS011;70629;-26.026;27.976;2023-12-28T03:17:27;10.27;;;6.28;;
81150;SDS011;70629;-26.026;27.976;2023-12-28T03:18:09;9.50;;;6.78;;
81150;SDS011;70629;-26.026;27.976;2023-12-28T03:18:49;8.77;;;6.57;;
81150;SDS011;70629;-26.026;27.976;2023-12-28T03:19:29;9.63;;;6.15;;
81150;SDS011;70629;-26.026;27.976;2023-12-28T03:20:09;9.07;;;6.53;;
81150;SDS011;70629;-26.026;27.976;2023-12-28T03:20:49;10.40;;;6.63;;
81150;SDS011;70629;-26.026;27.976;2023-12-28T03:21:29;9.52;;;6.30;;
81150;SDS011;70629;-26.026;27.976;2023-12-28T03:22:10;10.65;;;7.07;;
81150;SDS011;70629;-26.026;27.976;2023-12-28T03:22:50;10.32;;;6.40;;
81150;SDS011;70629;-26.026;27.976;2023-12-28T03:23:31;10.57;;;7.07;;
81150;SDS011;70629;-26.026;27.976;2023-12-28T03:24:10;8.85;;;6.35;;
81150;SDS011;70629;-26.026;27.976;2023-12-28T03:24:51;11.02;;;7.15;;
81150;SDS011;70629;-26.026;27.976;2023-12-28T03:25:31;9.70;;;5.72;;
81150;SDS011;70629;-26.026;27.976;2023-12-28T03:26:11;9.20;;;5.95;;
81150;SDS011;70629;-26.026;27.976;2023-12-28T03:26:50;10.40;;;6.80;;
81150;SDS011;70629;-26.026;27.976;2023-12-28T03:27:30;11.38;;;6.57;;
81150;SDS011;70629;-26.026;27.976;2023-12-28T03:28:10;8.80;;;6.40;;
81150;SDS011;70629;-26.026;27.976;2023-12-28T03:28:50;9.07;;;5.88;;
81150;SDS011;70629;-26.026;27.976;2023-12-28T03:29:30;9.25;;;6.47;;
81150;SDS011;70629;-26.026;27.976;2023-12-28T03:30:11;10.52;;;6.70;;
81150;SDS011;70629;-26.026;27.976;2023-12-28T03:30:51;12.02;;;7.25;;
81150;SDS011;70629;-26.026;27.976;2023-12-28T03:31:31;9.02;;;6.75;;
81150;SDS011;70629;-26.026;27.976;2023-12-28T03:32:12;10.73;;;6.60;;
81150;SDS011;70629;-26.026;27.976;2023-12-28T03:32:53;10.85;;;7.15;;
81150;SDS011;70629;-26.026;27.976;2023-12-28T03:33:33;10.90;;;6.82;;
81150;SDS011;70629;-26.026;27.976;2023-12-28T03:34:13;11.95;;;6.80;;
81150;SDS011;70629;-26.026;27.976;2023-12-28T03:34:53;9.82;;;6.63;;
81150;SDS011;70629;-26.026;27.976;2023-12-28T03:35:33;8.93;;;6.50;;
81150;SDS011;70629;-26.026;27.976;2023-12-28T03:36:18;10.18;;;7.13;;
81150;SDS011;70629;-26.026;27.976;2023-12-28T03:36:59;9.77;;;7.22;;
81150;SDS011;70629;-26.026;27.976;2023-12-28T03:37:38;10.02;;;6.60;;
81150;SDS011;70629;-26.026;27.976;2023-12-28T03:38:18;9.70;;;6.10;;
81150;SDS011;70629;-26.026;27.976;2023-12-28T03:38:58;11.23;;;6.07;;
81150;SDS011;70629;-26.026;27.976;2023-12-28T03:39:39;10.35;;;7.68;;
81150;SDS011;70629;-26.026;27.976;2023-12-28T03:40:19;10.00;;;7.10;;
81150;SDS011;70629;-26.026;27.976;2023-12-28T03:40:59;11.82;;;6.93;;
81150;SDS011;70629;-26.026;27.976;2023-12-28T03:41:39;9.60;;;7.20;;
81150;SDS011;70629;-26.026;27.976;2023-12-28T03:42:18;10.20;;;6.30;;
81150;SDS011;70629;-26.026;27.976;2023-12-28T03:43:00;12.07;;;7.97;;
81150;SDS011;70629;-26.026;27.976;2023-12-28T03:43:40;11.48;;;7.15;;
81150;SDS011;70629;-26.026;27.976;2023-12-28T03:44:20;10.50;;;7.15;;
81150;SDS011;70629;-26.026;27.976;2023-12-28T03:45:00;10.18;;;7.43;;
81150;SDS011;70629;-26.026;27.976;2023-12-28T03:45:40;10.75;;;8.40;;
81150;SDS011;70629;-26.026;27.976;2023-12-28T03:46:20;12.32;;;7.35;;
81150;SDS011;70629;-26.026;27.976;2023-12-28T03:47:00;11.82;;;7.22;;
81150;SDS011;70629;-26.026;27.976;2023-12-28T03:47:40;13.57;;;8.90;;
81150;SDS011;70629;-26.026;27.976;2023-12-28T03:48:20;10.55;;;8.25;;
81150;SDS011;70629;-26.026;27.976;2023-12-28T03:49:00;11.68;;;7.60;;
81150;SDS011;70629;-26.026;27.976;2023-12-28T03:49:40;12.40;;;7.45;;
81150;SDS011;70629;-26.026;27.976;2023-12-28T03:50:20;12.68;;;8.55;;
81150;SDS011;70629;-26.026;27.976;2023-12-28T03:51:00;11.88;;;7.90;;
81150;SDS011;70629;-26.026;27.976;2023-12-28T03:51:40;13.15;;;8.13;;
81150;SDS011;70629;-26.026;27.976;2023-12-28T03:52:20;11.90;;;8.25;;
81150;SDS011;70629;-26.026;27.976;2023-12-28T03:53:00;11.23;;;7.60;;
81150;SDS011;70629;-26.026;27.976;2023-12-28T03:53:40;12.65;;;8.38;;
81150;SDS011;70629;-26.026;27.976;2023-12-28T03:54:21;14.45;;;7.88;;
81150;SDS011;70629;-26.026;27.976;2023-12-28T03:55:02;12.80;;;8.63;;
81150;SDS011;70629;-26.026;27.976;2023-12-28T03:55:42;12.07;;;9.13;;
81150;SDS011;70629;-26.026;27.976;2023-12-28T03:56:22;14.48;;;9.35;;
81150;SDS011;70629;-26.026;27.976;2023-12-28T03:57:04;11.85;;;8.05;;
81150;SDS011;70629;-26.026;27.976;2023-12-28T03:57:44;12.23;;;8.23;;
81150;SDS011;70629;-26.026;27.976;2023-12-28T03:58:25;12.45;;;8.10;;
81150;SDS011;70629;-26.026;27.976;2023-12-28T03:59:05;11.98;;;7.75;;